createdAt,value
2022-11-15T00:04:14.906Z,23.80
2022-11-15T00:08:35.162Z,22.65
2022-11-15T00:12:54.979Z,25.35
2022-11-15T00:17:14.941Z,26.55
2022-11-15T00:21:34.943Z,26.02
2022-11-15T00:25:57.644Z,26.13
2022-11-15T00:30:17.623Z,26.13
2022-11-15T00:34:37.768Z,24.10
2022-11-15T00:38:57.811Z,25.10
2022-11-15T00:43:18.087Z,24.75
2022-11-15T00:47:37.982Z,25.95
2022-11-15T00:51:58.287Z,25.65
2022-11-15T00:56:18.289Z,24.65
2022-11-15T01:00:38.457Z,26.27
2022-11-15T01:04:58.895Z,24.80
2022-11-15T01:09:19.105Z,27.83
2022-11-15T01:13:40.285Z,24.45
2022-11-15T01:18:00.465Z,26.65
2022-11-15T01:22:20.877Z,25.88
2022-11-15T01:26:40.881Z,26.65
2022-11-15T01:31:02.185Z,27.15
2022-11-15T01:35:22.534Z,25.95
2022-11-15T01:39:42.595Z,25.98
2022-11-15T01:44:34.393Z,24.95
2022-11-15T01:48:57.787Z,26.33
2022-11-15T01:53:20.857Z,24.80
2022-11-15T01:57:43.938Z,26.52
2022-11-15T02:02:04.463Z,25.33
2022-11-15T02:06:24.748Z,27.00
2022-11-15T02:10:45.030Z,23.58
2022-11-15T02:15:08.045Z,25.80
2022-11-15T02:19:34.533Z,26.17
2022-11-15T02:24:25.740Z,27.55
2022-11-15T02:28:57.957Z,24.90
2022-11-15T02:33:40.210Z,24.30
2022-11-15T02:38:10.001Z,24.00
2022-11-15T02:42:55.054Z,24.23
2022-11-15T02:47:18.660Z,25.33
2022-11-15T02:51:40.784Z,23.92
2022-11-15T02:56:00.847Z,23.30
2022-11-15T03:00:22.088Z,24.50
2022-11-15T03:04:57.033Z,22.70
2022-11-15T03:09:53.651Z,24.45
2022-11-15T03:14:49.653Z,22.80
2022-11-15T03:19:22.002Z,23.10
2022-11-15T03:23:42.434Z,23.63
2022-11-15T03:28:07.033Z,21.73
2022-11-15T03:32:31.696Z,23.70
2022-11-15T03:36:52.630Z,23.05
2022-11-15T03:41:31.563Z,22.38
2022-11-15T03:45:57.566Z,21.63
2022-11-15T03:50:23.569Z,22.40
2022-11-15T03:54:57.524Z,21.92
2022-11-15T03:59:17.727Z,22.00
2022-11-15T04:03:37.591Z,23.02
2022-11-15T04:07:57.501Z,22.08
2022-11-15T04:12:31.599Z,21.48
2022-11-15T04:16:51.691Z,21.80
2022-11-15T04:21:30.293Z,20.95
2022-11-15T04:25:53.187Z,19.83
2022-11-15T04:30:13.329Z,23.85
2022-11-15T04:34:34.045Z,21.25
2022-11-15T04:38:53.869Z,21.98
2022-11-15T04:43:13.950Z,21.17
2022-11-15T04:47:33.832Z,22.20
2022-11-15T04:51:54.182Z,19.80
2022-11-15T04:56:14.286Z,20.23
2022-11-15T05:00:34.555Z,22.25
2022-11-15T05:04:54.613Z,20.23
2022-11-15T05:09:15.249Z,20.50
2022-11-15T05:13:35.571Z,21.55
2022-11-15T05:18:01.335Z,21.67
2022-11-15T05:22:21.383Z,20.77
2022-11-15T05:26:41.553Z,21.85
2022-11-15T05:31:06.904Z,20.33
2022-11-15T05:35:34.259Z,22.38
2022-11-15T05:39:54.552Z,21.00
2022-11-15T05:44:20.229Z,22.52
2022-11-15T05:48:44.214Z,20.63
2022-11-15T05:53:05.494Z,20.45
2022-11-15T05:57:26.193Z,21.33
2022-11-15T06:01:46.803Z,20.98
2022-11-15T06:06:07.748Z,20.95
2022-11-15T06:10:30.352Z,20.73
2022-11-15T06:14:50.440Z,23.23
2022-11-15T06:19:12.674Z,20.23
2022-11-15T06:23:34.344Z,21.92
2022-11-15T06:27:55.741Z,21.67
2022-11-15T06:32:15.668Z,20.60
2022-11-15T06:36:37.195Z,20.73
2022-11-15T06:41:03.434Z,21.58
2022-11-15T06:45:23.770Z,19.60
2022-11-15T06:49:45.448Z,19.05
2022-11-15T06:54:06.274Z,17.83
2022-11-15T06:58:28.346Z,18.40
2022-11-15T07:02:49.532Z,18.67
2022-11-15T07:07:10.570Z,18.17
2022-11-15T07:11:31.184Z,18.60
2022-11-15T07:15:51.395Z,19.27
2022-11-15T07:20:14.145Z,17.75
2022-11-15T07:24:34.156Z,18.17
2022-11-15T07:28:54.541Z,19.63
2022-11-15T07:33:14.656Z,16.83
2022-11-15T07:37:34.670Z,17.27
2022-11-15T07:42:14.783Z,17.98
2022-11-15T07:46:35.243Z,16.48
2022-11-15T07:50:55.668Z,16.50
2022-11-15T07:55:16.154Z,17.08
2022-11-15T07:59:36.299Z,16.58
2022-11-15T08:03:56.743Z,16.92
2022-11-15T08:08:17.146Z,16.00
2022-11-15T08:12:37.426Z,16.05
2022-11-15T08:16:57.880Z,15.35
2022-11-15T08:21:20.870Z,14.95
2022-11-15T08:25:41.006Z,15.02
2022-11-15T08:36:03.335Z,15.85
2022-11-15T08:40:23.802Z,16.00
2022-11-15T08:44:44.163Z,14.60
2022-11-15T08:49:04.599Z,14.82
2022-11-15T08:53:26.481Z,14.05
2022-11-15T08:57:47.525Z,15.65
2022-11-15T09:02:14.628Z,14.68
2022-11-15T09:06:43.407Z,14.63
2022-11-15T09:11:06.020Z,15.60
2022-11-15T09:15:25.964Z,15.35
2022-11-15T09:19:49.775Z,14.85
2022-11-15T09:30:16.114Z,15.73
2022-11-15T09:34:36.644Z,14.77
2022-11-15T09:39:12.052Z,15.18
2022-11-15T09:43:55.934Z,14.05
2022-11-15T09:48:41.066Z,15.43
2022-11-15T09:53:51.050Z,14.18
2022-11-15T09:58:11.801Z,13.85
2022-11-15T10:02:38.223Z,14.02
2022-11-15T10:06:56.266Z,15.02
2022-11-15T10:11:36.242Z,13.73
2022-11-15T10:15:34.529Z,12.65
2022-11-15T10:20:18.917Z,13.23
2022-11-15T10:24:33.637Z,14.90
2022-11-15T10:28:38.413Z,13.25
2022-11-15T10:33:18.503Z,12.88
2022-11-15T10:37:32.498Z,13.85
2022-11-15T10:41:38.875Z,13.65
2022-11-15T10:45:42.117Z,14.85
2022-11-15T10:50:04.882Z,14.88
2022-11-15T10:54:13.744Z,12.30
2022-11-15T10:58:47.269Z,13.88
2022-11-15T11:02:58.171Z,13.45
2022-11-15T11:07:01.450Z,14.85
2022-11-15T11:11:05.762Z,13.52
2022-11-15T11:15:14.180Z,14.43
2022-11-15T11:19:36.103Z,13.63
2022-11-15T11:23:53.548Z,12.60
2022-11-15T11:28:17.518Z,13.00
2022-11-15T11:32:43.997Z,12.98
2022-11-15T11:37:03.636Z,13.07
2022-11-15T11:42:15.670Z,13.88
2022-11-15T11:46:17.114Z,13.07
2022-11-15T11:50:21.871Z,14.00
2022-11-15T11:54:39.071Z,13.32
2022-11-15T12:03:19.754Z,13.75
2022-11-15T12:11:57.471Z,13.20
2022-11-15T12:16:15.943Z,13.07
2022-11-15T12:20:22.716Z,13.50
2022-11-15T12:24:29.322Z,12.93
2022-11-15T12:29:07.926Z,12.65
2022-11-15T12:33:42.997Z,13.85
2022-11-15T12:37:50.517Z,12.52
2022-11-15T12:41:57.905Z,12.85
2022-11-15T12:46:05.473Z,12.80
2022-11-15T12:50:13.658Z,14.10
2022-11-15T12:54:24.335Z,15.15
2022-11-15T12:58:43.309Z,11.82
2022-11-15T13:02:46.403Z,13.45
2022-11-15T13:06:49.081Z,13.15
2022-11-15T13:10:51.684Z,12.80
2022-11-15T13:15:14.623Z,12.45
2022-11-15T13:19:16.518Z,13.23
2022-11-15T13:23:18.251Z,13.65
2022-11-15T13:27:20.600Z,14.60
2022-11-15T13:31:30.454Z,13.07
2022-11-15T13:35:34.575Z,13.35
2022-11-15T13:39:38.458Z,13.07
2022-11-15T13:43:39.950Z,13.10
2022-11-15T13:47:41.493Z,12.13
2022-11-15T13:51:54.701Z,13.55
2022-11-15T13:55:59.362Z,12.52
2022-11-15T14:00:05.447Z,11.20
2022-11-15T14:04:19.072Z,13.18
2022-11-15T14:08:20.456Z,11.50
2022-11-15T14:12:30.682Z,12.05
2022-11-15T14:16:37.179Z,12.73
2022-11-15T14:20:40.233Z,12.25
2022-11-15T14:24:46.888Z,11.85
2022-11-15T14:28:48.593Z,12.27
2022-11-15T14:32:51.760Z,12.63
2022-11-15T14:36:53.632Z,12.13
2022-11-15T14:40:56.692Z,12.70
2022-11-15T14:45:01.395Z,12.80
2022-11-15T14:49:02.960Z,13.10
2022-11-15T14:53:05.449Z,12.65
2022-11-15T14:57:06.984Z,12.40
2022-11-15T15:01:22.204Z,12.82
2022-11-15T15:05:33.443Z,12.38
2022-11-15T15:09:34.919Z,12.40
2022-11-15T15:13:36.589Z,12.88
2022-11-15T15:17:38.254Z,13.52
2022-11-15T15:21:40.132Z,13.02
2022-11-15T15:25:42.856Z,12.70
2022-11-15T15:29:44.446Z,13.85
2022-11-15T15:33:46.148Z,14.65
2022-11-15T15:37:49.218Z,13.52
2022-11-15T15:41:54.861Z,13.95
2022-11-15T15:46:01.528Z,12.65
2022-11-15T15:50:04.355Z,14.57
2022-11-15T15:54:06.022Z,16.30
2022-11-15T15:58:09.064Z,13.73
2022-11-15T16:02:16.587Z,13.35
2022-11-15T16:06:36.315Z,13.95
2022-11-15T16:10:37.994Z,13.50
2022-11-15T16:14:39.696Z,14.07
2022-11-15T16:18:41.217Z,14.90
2022-11-15T16:22:42.838Z,13.68
2022-11-15T16:26:45.735Z,14.02
2022-11-15T16:30:50.022Z,13.35
2022-11-15T16:35:21.422Z,13.95
2022-11-15T16:39:23.543Z,13.88
2022-11-15T16:48:54.709Z,16.27
2022-11-15T16:52:58.821Z,13.77
2022-11-15T16:57:00.305Z,13.35
2022-11-15T17:01:01.991Z,14.23
2022-11-15T17:05:09.614Z,13.90
2022-11-15T17:09:19.033Z,13.55
2022-11-15T17:13:20.504Z,13.45
2022-11-15T17:17:22.074Z,13.40
2022-11-15T17:21:23.619Z,14.20
2022-11-15T17:25:25.318Z,15.13
2022-11-15T17:29:26.803Z,13.45
2022-11-15T17:33:28.372Z,14.45
2022-11-15T17:37:30.024Z,14.75
2022-11-15T17:41:31.829Z,13.18
2022-11-15T17:45:33.449Z,13.75
2022-11-15T17:49:39.245Z,13.45
2022-11-15T17:53:43.175Z,15.48
2022-11-15T17:57:44.812Z,15.57
2022-11-15T18:01:46.328Z,13.77
2022-11-15T18:05:48.071Z,15.32
2022-11-15T18:09:49.634Z,14.75
2022-11-15T18:13:54.477Z,14.20
2022-11-15T18:18:00.748Z,13.30
2022-11-15T18:22:04.435Z,14.15
2022-11-15T18:26:07.672Z,13.75
2022-11-15T18:30:09.749Z,12.13
2022-11-15T18:34:11.517Z,12.70
2022-11-15T18:38:12.971Z,14.27
2022-11-15T18:42:14.615Z,13.30
2022-11-15T18:46:19.144Z,13.70
2022-11-15T18:50:20.686Z,13.48
2022-11-15T18:54:26.780Z,12.68
2022-11-15T18:58:33.980Z,12.80
2022-11-15T19:02:35.532Z,12.90
2022-11-15T19:06:42.426Z,11.35
2022-11-15T19:10:43.984Z,11.63
2022-11-15T19:14:45.492Z,12.52
2022-11-15T19:18:46.992Z,12.02
2022-11-15T19:22:48.537Z,13.13
2022-11-15T19:26:50.361Z,12.25
2022-11-15T19:30:52.158Z,11.80
2022-11-15T19:34:53.739Z,11.68
2022-11-15T19:38:56.434Z,11.55
2022-11-15T19:42:58.079Z,11.80
2022-11-15T19:46:59.625Z,10.82
2022-11-15T19:51:02.991Z,11.43
2022-11-15T19:55:05.409Z,10.40
2022-11-15T19:59:07.549Z,9.55
2022-11-15T20:03:09.030Z,10.57
2022-11-15T20:07:10.780Z,9.98
2022-11-15T20:11:13.332Z,10.50
2022-11-15T20:15:15.128Z,10.68
2022-11-15T20:19:16.734Z,10.38
2022-11-15T20:23:18.887Z,10.27
2022-11-15T20:27:20.478Z,10.18
2022-11-15T20:31:22.084Z,10.85
2022-11-15T20:35:23.831Z,10.07
2022-11-15T20:39:25.429Z,10.35
2022-11-15T20:43:27.120Z,10.73
2022-11-15T20:47:31.462Z,10.43
2022-11-15T20:51:33.220Z,9.43
2022-11-15T20:55:40.802Z,11.73
2022-11-15T20:59:42.409Z,10.25
2022-11-15T21:03:44.082Z,9.75
2022-11-15T21:07:45.916Z,9.95
2022-11-15T21:12:05.993Z,9.60
2022-11-15T21:16:08.196Z,9.60
2022-11-15T21:20:11.068Z,9.57
2022-11-15T21:24:12.944Z,9.48
2022-11-15T21:28:14.498Z,8.73
2022-11-15T21:32:16.175Z,9.18
2022-11-15T21:36:17.756Z,8.95
2022-11-15T21:40:19.619Z,9.75
2022-11-15T21:44:24.168Z,8.13
2022-11-15T21:48:27.150Z,8.15
2022-11-15T21:52:29.027Z,8.95
2022-11-15T21:56:31.030Z,8.88
2022-11-15T22:00:50.940Z,8.73
2022-11-15T22:04:52.662Z,8.18
2022-11-15T22:08:54.184Z,9.15
2022-11-15T22:12:55.766Z,7.50
2022-11-15T22:16:57.222Z,9.35
2022-11-15T22:21:07.288Z,8.48
2022-11-15T22:25:08.896Z,9.32
2022-11-15T22:29:10.397Z,7.78
2022-11-15T22:33:11.944Z,7.80
2022-11-15T22:37:20.531Z,8.23
2022-11-15T22:41:22.856Z,7.82
2022-11-15T22:45:24.403Z,8.60
2022-11-15T22:49:25.871Z,8.32
2022-11-15T22:53:27.481Z,7.05
2022-11-15T22:57:29.010Z,8.00
2022-11-15T23:01:30.647Z,7.95
2022-11-15T23:05:34.951Z,7.75
2022-11-15T23:09:36.812Z,7.65
2022-11-15T23:13:38.302Z,7.60
2022-11-15T23:17:39.800Z,6.65
2022-11-15T23:22:02.523Z,6.47
2022-11-15T23:26:05.717Z,7.97
2022-11-15T23:30:26.432Z,6.45
2022-11-15T23:34:28.299Z,6.93
2022-11-15T23:38:32.892Z,7.10
2022-11-15T23:42:34.678Z,7.00
2022-11-15T23:46:36.285Z,6.68
2022-11-15T23:50:38.045Z,7.45
2022-11-15T23:54:39.463Z,7.43
2022-11-15T23:58:42.576Z,6.60
